KCOS/COS METAR and TAF weather

Enter ICAO airport designator
Station Type Date Time Source
KCOS METAR 2019/06/16 11:54 UTC NOAA

KCOS 161154Z 36006KT 10SM FEW180 BKN250 09/07 A3013 RMK AO2 SLP160 70006 T00940067 10117 20089 55001


Station Type Date Time Source
KCOS Decoded METAR 2019/06/16 11:54 UTC NOAA

COLORADO SPRINGS MUNI, CO, United States (KCOS) 38-49N 104-43W 1856M
Jun 16, 2019 - 07:54 AM EDT / 2019.06.16 1154 UTC
Wind: from the N (360 degrees) at 7 MPH (6 KT):0
Visibility: 10 mile(s):0
Sky conditions: mostly cloudy
Temperature: 48.9 F (9.4 C)
Dew Point: 44.1 F (6.7 C)
Relative Humidity: 83%
Pressure (altimeter): 30.13 in. Hg (1020 hPa)
Pressure tendency: 0.00 inches (0.1 hPa) lower than three hours ago
ob: KCOS 161154Z 36006KT 10SM FEW180 BKN250 09/07 A3013 RMK AO2 SLP160 70006 T00940067 10117 20089 55001
cycle: 12

Station Type Date Time Source
KCOS TAF 2019/06/16 12:27 UTC NOAA

TAF KCOS 161125Z 1612/1712 VRB06KT P6SM FEW150 BKN200
FM161700 15014KT P6SM SCT060 BKN120
FM170100 VRB06KT P6SM VCTS SCT040CB BKN060
FM170600 03006KT P6SM SCT060 BKN200

Example: see airport list